sensor_id;sensor_type;location;lat;lon;timestamp;P1;durP1;ratioP1;P2;durP2;ratioP2
29044;SDS011;16133;49.486;12.176;2023-03-21T00:01:16;14.82;;;7.50;;
29044;SDS011;16133;49.486;12.176;2023-03-21T00:03:42;15.27;;;7.60;;
29044;SDS011;16133;49.486;12.176;2023-03-21T00:06:08;12.85;;;6.90;;
29044;SDS011;16133;49.486;12.176;2023-03-21T00:08:35;14.63;;;7.65;;
29044;SDS011;16133;49.486;12.176;2023-03-21T00:11:02;16.42;;;7.85;;
29044;SDS011;16133;49.486;12.176;2023-03-21T00:13:30;14.48;;;6.75;;
29044;SDS011;16133;49.486;12.176;2023-03-21T00:16:06;15.18;;;7.50;;
29044;SDS011;16133;49.486;12.176;2023-03-21T00:18:34;14.60;;;7.05;;
29044;SDS011;16133;49.486;12.176;2023-03-21T00:21:06;12.98;;;7.28;;
29044;SDS011;16133;49.486;12.176;2023-03-21T00:23:35;14.40;;;7.68;;
29044;SDS011;16133;49.486;12.176;2023-03-21T00:26:00;15.60;;;7.43;;
29044;SDS011;16133;49.486;12.176;2023-03-21T00:28:26;14.73;;;7.95;;
29044;SDS011;16133;49.486;12.176;2023-03-21T00:30:58;17.27;;;7.43;;
29044;SDS011;16133;49.486;12.176;2023-03-21T00:33:24;17.83;;;8.35;;
29044;SDS011;16133;49.486;12.176;2023-03-21T00:35:50;14.75;;;8.10;;
29044;SDS011;16133;49.486;12.176;2023-03-21T00:38:17;15.60;;;7.80;;
29044;SDS011;16133;49.486;12.176;2023-03-21T00:40:47;17.00;;;7.53;;
29044;SDS011;16133;49.486;12.176;2023-03-21T00:43:13;15.63;;;8.18;;
29044;SDS011;16133;49.486;12.176;2023-03-21T00:45:43;17.52;;;8.30;;
29044;SDS011;16133;49.486;12.176;2023-03-21T00:48:09;17.52;;;8.13;;
29044;SDS011;16133;49.486;12.176;2023-03-21T00:50:35;15.10;;;7.70;;
29044;SDS011;16133;49.486;12.176;2023-03-21T00:53:01;16.15;;;7.53;;
29044;SDS011;16133;49.486;12.176;2023-03-21T00:55:27;16.50;;;7.70;;
29044;SDS011;16133;49.486;12.176;2023-03-21T00:57:52;16.88;;;7.80;;
29044;SDS011;16133;49.486;12.176;2023-03-21T01:00:17;14.25;;;8.30;;
29044;SDS011;16133;49.486;12.176;2023-03-21T01:02:44;12.75;;;7.43;;
29044;SDS011;16133;49.486;12.176;2023-03-21T01:05:25;15.90;;;7.88;;
29044;SDS011;16133;49.486;12.176;2023-03-21T01:08:12;15.15;;;7.43;;
29044;SDS011;16133;49.486;12.176;2023-03-21T01:10:39;14.48;;;7.05;;
29044;SDS011;16133;49.486;12.176;2023-03-21T01:13:09;14.07;;;7.40;;
29044;SDS011;16133;49.486;12.176;2023-03-21T01:15:36;16.88;;;7.88;;
29044;SDS011;16133;49.486;12.176;2023-03-21T01:18:07;15.80;;;7.38;;
29044;SDS011;16133;49.486;12.176;2023-03-21T01:20:33;19.05;;;8.48;;
29044;SDS011;16133;49.486;12.176;2023-03-21T01:22:59;15.10;;;7.88;;
29044;SDS011;16133;49.486;12.176;2023-03-21T01:25:24;12.80;;;7.38;;
29044;SDS011;16133;49.486;12.176;2023-03-21T01:27:50;16.23;;;7.57;;
29044;SDS011;16133;49.486;12.176;2023-03-21T01:30:15;19.17;;;7.72;;
29044;SDS011;16133;49.486;12.176;2023-03-21T01:32:41;13.77;;;7.47;;
29044;SDS011;16133;49.486;12.176;2023-03-21T01:35:07;15.50;;;7.20;;
29044;SDS011;16133;49.486;12.176;2023-03-21T01:37:32;16.67;;;7.63;;
29044;SDS011;16133;49.486;12.176;2023-03-21T01:39:58;13.35;;;7.35;;
29044;SDS011;16133;49.486;12.176;2023-03-21T01:42:23;14.93;;;6.97;;
29044;SDS011;16133;49.486;12.176;2023-03-21T01:47:21;11.48;;;6.25;;
29044;SDS011;16133;49.486;12.176;2023-03-21T01:49:48;15.13;;;7.10;;
29044;SDS011;16133;49.486;12.176;2023-03-21T01:52:18;17.30;;;7.82;;
29044;SDS011;16133;49.486;12.176;2023-03-21T01:54:48;15.18;;;7.07;;
29044;SDS011;16133;49.486;12.176;2023-03-21T01:57:22;16.00;;;7.15;;
29044;SDS011;16133;49.486;12.176;2023-03-21T01:59:56;15.43;;;7.25;;
29044;SDS011;16133;49.486;12.176;2023-03-21T02:02:29;14.63;;;6.95;;
29044;SDS011;16133;49.486;12.176;2023-03-21T02:04:55;17.65;;;7.45;;
29044;SDS011;16133;49.486;12.176;2023-03-21T02:07:32;15.00;;;7.75;;
29044;SDS011;16133;49.486;12.176;2023-03-21T02:09:59;17.90;;;8.23;;
29044;SDS011;16133;49.486;12.176;2023-03-21T02:12:28;17.92;;;8.70;;
29044;SDS011;16133;49.486;12.176;2023-03-21T02:14:55;17.55;;;7.47;;
29044;SDS011;16133;49.486;12.176;2023-03-21T02:46:50;17.25;;;8.10;;
29044;SDS011;16133;49.486;12.176;2023-03-21T02:51:51;17.80;;;8.50;;
29044;SDS011;16133;49.486;12.176;2023-03-21T02:54:18;15.70;;;7.93;;
29044;SDS011;16133;49.486;12.176;2023-03-21T02:56:46;16.20;;;8.00;;
29044;SDS011;16133;49.486;12.176;2023-03-21T02:59:14;17.27;;;7.82;;
29044;SDS011;16133;49.486;12.176;2023-03-21T03:01:41;16.80;;;8.07;;
29044;SDS011;16133;49.486;12.176;2023-03-21T03:04:17;17.52;;;6.88;;
29044;SDS011;16133;49.486;12.176;2023-03-21T03:07:33;13.10;;;7.35;;
29044;SDS011;16133;49.486;12.176;2023-03-21T03:09:54;15.13;;;6.90;;
29044;SDS011;16133;49.486;12.176;2023-03-21T03:12:44;13.30;;;6.68;;
29044;SDS011;16133;49.486;12.176;2023-03-21T03:20:39;15.13;;;7.45;;
29044;SDS011;16133;49.486;12.176;2023-03-21T03:25:38;13.95;;;6.47;;
29044;SDS011;16133;49.486;12.176;2023-03-21T03:28:10;15.35;;;7.35;;
29044;SDS011;16133;49.486;12.176;2023-03-21T03:30:38;16.67;;;7.75;;
29044;SDS011;16133;49.486;12.176;2023-03-21T03:33:05;16.63;;;7.47;;
29044;SDS011;16133;49.486;12.176;2023-03-21T03:35:34;14.13;;;6.93;;
29044;SDS011;16133;49.486;12.176;2023-03-21T03:38:00;14.60;;;7.35;;
29044;SDS011;16133;49.486;12.176;2023-03-21T03:40:30;13.70;;;6.95;;
29044;SDS011;16133;49.486;12.176;2023-03-21T03:43:06;13.30;;;6.75;;
29044;SDS011;16133;49.486;12.176;2023-03-21T03:45:42;14.57;;;6.57;;
29044;SDS011;16133;49.486;12.176;2023-03-21T03:48:36;14.05;;;6.40;;
29044;SDS011;16133;49.486;12.176;2023-03-21T03:51:19;12.07;;;5.95;;
29044;SDS011;16133;49.486;12.176;2023-03-21T03:54:11;13.27;;;6.90;;
29044;SDS011;16133;49.486;12.176;2023-03-21T03:56:38;10.93;;;6.00;;
29044;SDS011;16133;49.486;12.176;2023-03-21T03:59:04;16.27;;;7.45;;
29044;SDS011;16133;49.486;12.176;2023-03-21T04:01:31;13.95;;;7.07;;
29044;SDS011;16133;49.486;12.176;2023-03-21T04:03:57;11.90;;;6.57;;
29044;SDS011;16133;49.486;12.176;2023-03-21T04:06:24;15.23;;;6.85;;
29044;SDS011;16133;49.486;12.176;2023-03-21T04:08:52;12.68;;;6.93;;
29044;SDS011;16133;49.486;12.176;2023-03-21T04:11:21;14.27;;;7.45;;
29044;SDS011;16133;49.486;12.176;2023-03-21T04:13:47;17.73;;;7.32;;
29044;SDS011;16133;49.486;12.176;2023-03-21T04:16:12;16.13;;;7.32;;
29044;SDS011;16133;49.486;12.176;2023-03-21T04:18:38;17.88;;;7.97;;
29044;SDS011;16133;49.486;12.176;2023-03-21T04:21:08;17.55;;;7.15;;
29044;SDS011;16133;49.486;12.176;2023-03-21T04:23:37;16.92;;;7.78;;
29044;SDS011;16133;49.486;12.176;2023-03-21T04:26:03;16.08;;;7.63;;
29044;SDS011;16133;49.486;12.176;2023-03-21T04:28:29;14.55;;;7.32;;
29044;SDS011;16133;49.486;12.176;2023-03-21T04:30:55;14.60;;;7.63;;
29044;SDS011;16133;49.486;12.176;2023-03-21T04:33:22;15.75;;;7.60;;
29044;SDS011;16133;49.486;12.176;2023-03-21T04:35:50;15.38;;;8.32;;
29044;SDS011;16133;49.486;12.176;2023-03-21T04:38:20;16.48;;;8.50;;
29044;SDS011;16133;49.486;12.176;2023-03-21T04:40:47;13.63;;;7.57;;
29044;SDS011;16133;49.486;12.176;2023-03-21T04:43:12;13.50;;;7.05;;
29044;SDS011;16133;49.486;12.176;2023-03-21T04:45:37;12.27;;;6.88;;
29044;SDS011;16133;49.486;12.176;2023-03-21T04:48:03;13.32;;;6.65;;
29044;SDS011;16133;49.486;12.176;2023-03-21T04:50:28;14.15;;;6.57;;
29044;SDS011;16133;49.486;12.176;2023-03-21T04:52:54;14.70;;;7.45;;
29044;SDS011;16133;49.486;12.176;2023-03-21T04:55:19;11.93;;;6.57;;
29044;SDS011;16133;49.486;12.176;2023-03-21T04:57:45;16.00;;;7.40;;
29044;SDS011;16133;49.486;12.176;2023-03-21T05:00:11;13.32;;;7.25;;
29044;SDS011;16133;49.486;12.176;2023-03-21T05:02:39;16.08;;;7.53;;
29044;SDS011;16133;49.486;12.176;2023-03-21T05:05:05;16.08;;;7.90;;
29044;SDS011;16133;49.486;12.176;2023-03-21T05:07:35;15.10;;;8.27;;
29044;SDS011;16133;49.486;12.176;2023-03-21T05:10:01;18.55;;;8.73;;
29044;SDS011;16133;49.486;12.176;2023-03-21T05:12:27;19.20;;;8.95;;
29044;SDS011;16133;49.486;12.176;2023-03-21T05:14:52;18.80;;;8.45;;
29044;SDS011;16133;49.486;12.176;2023-03-21T05:17:17;15.35;;;8.43;;
29044;SDS011;16133;49.486;12.176;2023-03-21T05:19:47;16.10;;;8.30;;
29044;SDS011;16133;49.486;12.176;2023-03-21T05:22:14;16.48;;;7.65;;
29044;SDS011;16133;49.486;12.176;2023-03-21T05:24:43;16.67;;;8.15;;
29044;SDS011;16133;49.486;12.176;2023-03-21T05:27:14;18.30;;;8.55;;
29044;SDS011;16133;49.486;12.176;2023-03-21T05:29:58;19.42;;;8.25;;
29044;SDS011;16133;49.486;12.176;2023-03-21T05:32:28;17.90;;;8.43;;
29044;SDS011;16133;49.486;12.176;2023-03-21T05:34:54;20.05;;;8.88;;
29044;SDS011;16133;49.486;12.176;2023-03-21T05:37:20;17.23;;;8.52;;
29044;SDS011;16133;49.486;12.176;2023-03-21T05:39:45;18.40;;;9.02;;
29044;SDS011;16133;49.486;12.176;2023-03-21T05:42:10;19.73;;;9.00;;
29044;SDS011;16133;49.486;12.176;2023-03-21T05:44:36;19.35;;;9.30;;
29044;SDS011;16133;49.486;12.176;2023-03-21T05:47:04;21.55;;;10.00;;
29044;SDS011;16133;49.486;12.176;2023-03-21T05:49:30;23.85;;;11.57;;
29044;SDS011;16133;49.486;12.176;2023-03-21T05:51:55;25.80;;;12.27;;
29044;SDS011;16133;49.486;12.176;2023-03-21T05:54:21;26.60;;;11.50;;
29044;SDS011;16133;49.486;12.176;2023-03-21T05:56:46;31.67;;;13.48;;
29044;SDS011;16133;49.486;12.176;2023-03-21T05:59:11;32.88;;;13.68;;
29044;SDS011;16133;49.486;12.176;2023-03-21T06:01:37;31.00;;;13.93;;
29044;SDS011;16133;49.486;12.176;2023-03-21T06:04:02;29.52;;;12.18;;
29044;SDS011;16133;49.486;12.176;2023-03-21T06:06:27;29.95;;;13.35;;
29044;SDS011;16133;49.486;12.176;2023-03-21T06:08:53;35.33;;;14.73;;
29044;SDS011;16133;49.486;12.176;2023-03-21T06:11:21;29.13;;;13.18;;
29044;SDS011;16133;49.486;12.176;2023-03-21T06:13:50;31.00;;;12.35;;
29044;SDS011;16133;49.486;12.176;2023-03-21T06:16:15;28.10;;;12.65;;
29044;SDS011;16133;49.486;12.176;2023-03-21T06:18:40;33.60;;;13.02;;
29044;SDS011;16133;49.486;12.176;2023-03-21T06:21:06;26.10;;;11.68;;
29044;SDS011;16133;49.486;12.176;2023-03-21T06:23:31;24.45;;;11.70;;
29044;SDS011;16133;49.486;12.176;2023-03-21T06:25:57;30.05;;;12.65;;
29044;SDS011;16133;49.486;12.176;2023-03-21T06:28:22;27.33;;;11.45;;
29044;SDS011;16133;49.486;12.176;2023-03-21T06:30:47;24.15;;;10.68;;
29044;SDS011;16133;49.486;12.176;2023-03-21T06:33:13;27.23;;;11.52;;
29044;SDS011;16133;49.486;12.176;2023-03-21T06:35:38;23.35;;;11.55;;
29044;SDS011;16133;49.486;12.176;2023-03-21T06:38:03;27.95;;;12.20;;
29044;SDS011;16133;49.486;12.176;2023-03-21T06:40:29;22.70;;;11.40;;
29044;SDS011;16133;49.486;12.176;2023-03-21T06:42:54;32.08;;;12.57;;
29044;SDS011;16133;49.486;12.176;2023-03-21T06:45:19;25.52;;;11.00;;
29044;SDS011;16133;49.486;12.176;2023-03-21T06:47:45;23.35;;;10.77;;
29044;SDS011;16133;49.486;12.176;2023-03-21T06:50:10;26.02;;;12.18;;
29044;SDS011;16133;49.486;12.176;2023-03-21T06:52:36;23.30;;;10.60;;
29044;SDS011;16133;49.486;12.176;2023-03-21T06:55:01;20.77;;;10.68;;
29044;SDS011;16133;49.486;12.176;2023-03-21T06:57:26;25.50;;;11.55;;
29044;SDS011;16133;49.486;12.176;2023-03-21T06:59:52;24.48;;;10.55;;
29044;SDS011;16133;49.486;12.176;2023-03-21T07:02:17;22.60;;;10.25;;
29044;SDS011;16133;49.486;12.176;2023-03-21T07:04:43;22.08;;;10.20;;
29044;SDS011;16133;49.486;12.176;2023-03-21T07:07:08;24.42;;;9.40;;
29044;SDS011;16133;49.486;12.176;2023-03-21T07:09:34;23.92;;;11.40;;
29044;SDS011;16133;49.486;12.176;2023-03-21T07:11:59;31.10;;;11.95;;
29044;SDS011;16133;49.486;12.176;2023-03-21T07:14:25;21.15;;;11.30;;
29044;SDS011;16133;49.486;12.176;2023-03-21T07:16:50;26.27;;;11.18;;
29044;SDS011;16133;49.486;12.176;2023-03-21T07:19:16;26.00;;;12.00;;
29044;SDS011;16133;49.486;12.176;2023-03-21T07:21:41;19.13;;;9.57;;
29044;SDS011;16133;49.486;12.176;2023-03-21T07:24:07;14.27;;;8.52;;
29044;SDS011;16133;49.486;12.176;2023-03-21T07:26:32;12.90;;;7.05;;
29044;SDS011;16133;49.486;12.176;2023-03-21T07:28:57;10.68;;;6.10;;
29044;SDS011;16133;49.486;12.176;2023-03-21T07:31:23;10.90;;;6.20;;
29044;SDS011;16133;49.486;12.176;2023-03-21T07:33:50;12.27;;;5.93;;
29044;SDS011;16133;49.486;12.176;2023-03-21T07:36:17;13.10;;;4.88;;
29044;SDS011;16133;49.486;12.176;2023-03-21T07:38:43;8.82;;;4.28;;
29044;SDS011;16133;49.486;12.176;2023-03-21T07:41:09;9.13;;;3.83;;
29044;SDS011;16133;49.486;12.176;2023-03-21T07:43:35;5.93;;;3.60;;
29044;SDS011;16133;49.486;12.176;2023-03-21T07:46:01;6.68;;;3.53;;
29044;SDS011;16133;49.486;12.176;2023-03-21T07:48:27;5.97;;;3.25;;
29044;SDS011;16133;49.486;12.176;2023-03-21T07:50:53;5.95;;;2.85;;
29044;SDS011;16133;49.486;12.176;2023-03-21T07:53:19;8.00;;;3.38;;
29044;SDS011;16133;49.486;12.176;2023-03-21T07:55:48;6.88;;;2.75;;
29044;SDS011;16133;49.486;12.176;2023-03-21T07:58:19;4.85;;;2.92;;
29044;SDS011;16133;49.486;12.176;2023-03-21T08:00:44;9.05;;;2.78;;
29044;SDS011;16133;49.486;12.176;2023-03-21T08:03:10;5.82;;;3.08;;
29044;SDS011;16133;49.486;12.176;2023-03-21T08:05:36;3.95;;;2.25;;
29044;SDS011;16133;49.486;12.176;2023-03-21T08:08:02;4.32;;;2.45;;
29044;SDS011;16133;49.486;12.176;2023-03-21T08:10:29;7.70;;;3.47;;
29044;SDS011;16133;49.486;12.176;2023-03-21T08:12:55;6.07;;;2.58;;
29044;SDS011;16133;49.486;12.176;2023-03-21T08:15:20;11.07;;;4.07;;
29044;SDS011;16133;49.486;12.176;2023-03-21T08:17:46;3.92;;;2.50;;
29044;SDS011;16133;49.486;12.176;2023-03-21T08:20:15;4.78;;;2.40;;
29044;SDS011;16133;49.486;12.176;2023-03-21T08:25:11;6.97;;;3.10;;
29044;SDS011;16133;49.486;12.176;2023-03-21T08:27:42;9.73;;;3.55;;
29044;SDS011;16133;49.486;12.176;2023-03-21T08:30:10;7.47;;;3.05;;
29044;SDS011;16133;49.486;12.176;2023-03-21T08:32:37;7.95;;;3.10;;
29044;SDS011;16133;49.486;12.176;2023-03-21T08:35:05;5.97;;;3.38;;
29044;SDS011;16133;49.486;12.176;2023-03-21T08:37:34;5.10;;;2.70;;
29044;SDS011;16133;49.486;12.176;2023-03-21T08:40:03;6.63;;;3.08;;
29044;SDS011;16133;49.486;12.176;2023-03-21T08:42:35;7.50;;;3.63;;
29044;SDS011;16133;49.486;12.176;2023-03-21T08:45:05;7.35;;;3.00;;
29044;SDS011;16133;49.486;12.176;2023-03-21T08:47:32;9.68;;;3.60;;
29044;SDS011;16133;49.486;12.176;2023-03-21T08:49:58;8.73;;;2.83;;
29044;SDS011;16133;49.486;12.176;2023-03-21T08:52:23;5.57;;;2.88;;
29044;SDS011;16133;49.486;12.176;2023-03-21T08:54:49;6.80;;;3.10;;
29044;SDS011;16133;49.486;12.176;2023-03-21T08:57:15;7.93;;;3.13;;
29044;SDS011;16133;49.486;12.176;2023-03-21T08:59:41;5.68;;;3.33;;
29044;SDS011;16133;49.486;12.176;2023-03-21T09:02:06;11.55;;;3.97;;
29044;SDS011;16133;49.486;12.176;2023-03-21T09:04:32;4.35;;;2.45;;
29044;SDS011;16133;49.486;12.176;2023-03-21T09:06:57;6.47;;;3.28;;
29044;SDS011;16133;49.486;12.176;2023-03-21T09:09:25;8.75;;;3.97;;
29044;SDS011;16133;49.486;12.176;2023-03-21T09:11:52;4.15;;;2.55;;
29044;SDS011;16133;49.486;12.176;2023-03-21T09:14:17;8.45;;;3.10;;
29044;SDS011;16133;49.486;12.176;2023-03-21T09:16:43;5.18;;;3.70;;
29044;SDS011;16133;49.486;12.176;2023-03-21T09:19:08;4.20;;;2.53;;
29044;SDS011;16133;49.486;12.176;2023-03-21T09:21:34;5.97;;;2.90;;
29044;SDS011;16133;49.486;12.176;2023-03-21T09:24:00;7.97;;;2.78;;
29044;SDS011;16133;49.486;12.176;2023-03-21T09:26:26;5.35;;;2.83;;
29044;SDS011;16133;49.486;12.176;2023-03-21T09:28:53;8.75;;;3.42;;
29044;SDS011;16133;49.486;12.176;2023-03-21T09:31:20;5.07;;;2.80;;
29044;SDS011;16133;49.486;12.176;2023-03-21T09:33:51;6.60;;;2.70;;
29044;SDS011;16133;49.486;12.176;2023-03-21T09:36:17;5.88;;;2.40;;
29044;SDS011;16133;49.486;12.176;2023-03-21T09:38:45;3.03;;;1.77;;
29044;SDS011;16133;49.486;12.176;2023-03-21T09:41:18;3.90;;;2.28;;
29044;SDS011;16133;49.486;12.176;2023-03-21T09:49:04;7.25;;;2.30;;
29044;SDS011;16133;49.486;12.176;2023-03-21T09:51:36;7.15;;;2.42;;
29044;SDS011;16133;49.486;12.176;2023-03-21T09:54:19;6.13;;;2.25;;
29044;SDS011;16133;49.486;12.176;2023-03-21T09:56:50;4.13;;;2.00;;
29044;SDS011;16133;49.486;12.176;2023-03-21T09:59:40;8.05;;;3.97;;
29044;SDS011;16133;49.486;12.176;2023-03-21T10:04:46;6.32;;;1.90;;
29044;SDS011;16133;49.486;12.176;2023-03-21T10:07:13;5.32;;;2.55;;
29044;SDS011;16133;49.486;12.176;2023-03-21T10:09:42;5.47;;;1.85;;
29044;SDS011;16133;49.486;12.176;2023-03-21T10:12:19;2.90;;;1.63;;
29044;SDS011;16133;49.486;12.176;2023-03-21T10:14:47;5.15;;;1.65;;
29044;SDS011;16133;49.486;12.176;2023-03-21T10:19:54;5.03;;;1.75;;
29044;SDS011;16133;49.486;12.176;2023-03-21T10:22:36;3.65;;;2.20;;
29044;SDS011;16133;49.486;12.176;2023-03-21T10:25:02;4.95;;;2.28;;
29044;SDS011;16133;49.486;12.176;2023-03-21T10:27:28;7.35;;;1.67;;
29044;SDS011;16133;49.486;12.176;2023-03-21T10:29:55;4.45;;;2.35;;
29044;SDS011;16133;49.486;12.176;2023-03-21T10:32:21;3.38;;;1.77;;
29044;SDS011;16133;49.486;12.176;2023-03-21T10:34:49;5.68;;;2.05;;
29044;SDS011;16133;49.486;12.176;2023-03-21T10:37:19;7.03;;;1.60;;
29044;SDS011;16133;49.486;12.176;2023-03-21T10:39:46;5.90;;;1.20;;
29044;SDS011;16133;49.486;12.176;2023-03-21T10:42:17;3.65;;;1.42;;
29044;SDS011;16133;49.486;12.176;2023-03-21T10:44:46;3.53;;;1.08;;
29044;SDS011;16133;49.486;12.176;2023-03-21T10:47:17;4.20;;;1.67;;
29044;SDS011;16133;49.486;12.176;2023-03-21T10:49:46;3.05;;;1.55;;
29044;SDS011;16133;49.486;12.176;2023-03-21T10:52:12;6.57;;;1.90;;
29044;SDS011;16133;49.486;12.176;2023-03-21T10:54:41;4.82;;;2.03;;
29044;SDS011;16133;49.486;12.176;2023-03-21T10:57:11;8.48;;;3.38;;
29044;SDS011;16133;49.486;12.176;2023-03-21T10:59:43;3.63;;;2.08;;
29044;SDS011;16133;49.486;12.176;2023-03-21T11:02:17;3.70;;;1.77;;
29044;SDS011;16133;49.486;12.176;2023-03-21T11:04:48;3.53;;;1.88;;
29044;SDS011;16133;49.486;12.176;2023-03-21T11:07:14;3.53;;;1.60;;
29044;SDS011;16133;49.486;12.176;2023-03-21T11:09:44;4.53;;;1.95;;
29044;SDS011;16133;49.486;12.176;2023-03-21T11:12:17;6.85;;;2.13;;
29044;SDS011;16133;49.486;12.176;2023-03-21T11:17:51;7.32;;;2.60;;
29044;SDS011;16133;49.486;12.176;2023-03-21T11:20:17;5.80;;;3.00;;
29044;SDS011;16133;49.486;12.176;2023-03-21T11:22:44;5.18;;;2.20;;
29044;SDS011;16133;49.486;12.176;2023-03-21T11:25:45;9.02;;;2.83;;
29044;SDS011;16133;49.486;12.176;2023-03-21T11:28:11;6.70;;;3.17;;
29044;SDS011;16133;49.486;12.176;2023-03-21T11:30:58;6.93;;;2.35;;
29044;SDS011;16133;49.486;12.176;2023-03-21T11:33:31;7.50;;;2.30;;
29044;SDS011;16133;49.486;12.176;2023-03-21T11:39:23;4.75;;;2.08;;
29044;SDS011;16133;49.486;12.176;2023-03-21T11:41:39;3.83;;;2.35;;
29044;SDS011;16133;49.486;12.176;2023-03-21T11:44:08;5.90;;;2.92;;
29044;SDS011;16133;49.486;12.176;2023-03-21T11:46:49;5.00;;;2.97;;
29044;SDS011;16133;49.486;12.176;2023-03-21T11:49:15;5.88;;;2.00;;
29044;SDS011;16133;49.486;12.176;2023-03-21T11:51:44;5.88;;;2.85;;
29044;SDS011;16133;49.486;12.176;2023-03-21T11:54:18;5.60;;;2.95;;
29044;SDS011;16133;49.486;12.176;2023-03-21T11:57:13;6.28;;;2.60;;
29044;SDS011;16133;49.486;12.176;2023-03-21T12:05:25;7.10;;;2.90;;
29044;SDS011;16133;49.486;12.176;2023-03-21T12:10:51;5.88;;;3.28;;
29044;SDS011;16133;49.486;12.176;2023-03-21T12:21:33;5.72;;;3.10;;
29044;SDS011;16133;49.486;12.176;2023-03-21T12:24:11;4.43;;;2.05;;
29044;SDS011;16133;49.486;12.176;2023-03-21T12:26:44;4.97;;;2.30;;
29044;SDS011;16133;49.486;12.176;2023-03-21T12:34:57;4.10;;;1.70;;
29044;SDS011;16133;49.486;12.176;2023-03-21T12:37:30;4.45;;;2.00;;
29044;SDS011;16133;49.486;12.176;2023-03-21T12:40:16;5.38;;;1.95;;
29044;SDS011;16133;49.486;12.176;2023-03-21T12:42:57;5.35;;;3.17;;
29044;SDS011;16133;49.486;12.176;2023-03-21T12:45:30;7.22;;;2.70;;
29044;SDS011;16133;49.486;12.176;2023-03-21T12:48:17;6.57;;;2.03;;
29044;SDS011;16133;49.486;12.176;2023-03-21T12:50:50;4.63;;;1.70;;
29044;SDS011;16133;49.486;12.176;2023-03-21T12:56:04;2.63;;;1.73;;
29044;SDS011;16133;49.486;12.176;2023-03-21T12:58:37;3.22;;;1.75;;
29044;SDS011;16133;49.486;12.176;2023-03-21T13:01:10;4.78;;;1.80;;
29044;SDS011;16133;49.486;12.176;2023-03-21T13:03:43;2.85;;;1.45;;
29044;SDS011;16133;49.486;12.176;2023-03-21T13:06:15;9.52;;;2.20;;
29044;SDS011;16133;49.486;12.176;2023-03-21T13:08:50;3.20;;;1.48;;
29044;SDS011;16133;49.486;12.176;2023-03-21T13:11:22;4.55;;;1.67;;
29044;SDS011;16133;49.486;12.176;2023-03-21T13:13:54;5.18;;;1.92;;
29044;SDS011;16133;49.486;12.176;2023-03-21T13:19:26;5.07;;;1.38;;
29044;SDS011;16133;49.486;12.176;2023-03-21T13:22:02;2.88;;;1.25;;
29044;SDS011;16133;49.486;12.176;2023-03-21T13:27:34;5.15;;;1.50;;
29044;SDS011;16133;49.486;12.176;2023-03-21T13:30:04;3.50;;;1.23;;
29044;SDS011;16133;49.486;12.176;2023-03-21T13:32:53;4.53;;;1.48;;
29044;SDS011;16133;49.486;12.176;2023-03-21T13:35:32;1.85;;;1.15;;
29044;SDS011;16133;49.486;12.176;2023-03-21T13:40:47;2.95;;;1.17;;
29044;SDS011;16133;49.486;12.176;2023-03-21T13:48:42;2.25;;;0.95;;
29044;SDS011;16133;49.486;12.176;2023-03-21T14:04:37;5.80;;;3.45;;
29044;SDS011;16133;49.486;12.176;2023-03-21T14:07:07;99.15;;;46.47;;
29044;SDS011;16133;49.486;12.176;2023-03-21T14:09:45;31.58;;;13.30;;
29044;SDS011;16133;49.486;12.176;2023-03-21T14:12:14;5.55;;;3.67;;
29044;SDS011;16133;49.486;12.176;2023-03-21T14:14:44;4.45;;;2.92;;
29044;SDS011;16133;49.486;12.176;2023-03-21T14:17:14;2.70;;;1.45;;
29044;SDS011;16133;49.486;12.176;2023-03-21T14:19:45;4.18;;;1.67;;
29044;SDS011;16133;49.486;12.176;2023-03-21T14:22:12;3.88;;;1.10;;
29044;SDS011;16133;49.486;12.176;2023-03-21T14:24:37;1.45;;;0.80;;
29044;SDS011;16133;49.486;12.176;2023-03-21T14:27:04;2.60;;;1.00;;
29044;SDS011;16133;49.486;12.176;2023-03-21T14:29:31;2.20;;;0.70;;
29044;SDS011;16133;49.486;12.176;2023-03-21T14:31:58;1.05;;;0.73;;
29044;SDS011;16133;49.486;12.176;2023-03-21T14:34:28;1.70;;;0.70;;
29044;SDS011;16133;49.486;12.176;2023-03-21T14:36:57;1.20;;;0.73;;
29044;SDS011;16133;49.486;12.176;2023-03-21T14:39:25;1.52;;;0.60;;
29044;SDS011;16133;49.486;12.176;2023-03-21T14:41:56;3.38;;;0.90;;
29044;SDS011;16133;49.486;12.176;2023-03-21T14:44:32;0.90;;;0.70;;
29044;SDS011;16133;49.486;12.176;2023-03-21T14:46:59;3.08;;;0.70;;
29044;SDS011;16133;49.486;12.176;2023-03-21T14:49:31;1.30;;;0.60;;
29044;SDS011;16133;49.486;12.176;2023-03-21T14:52:05;2.45;;;0.80;;
29044;SDS011;16133;49.486;12.176;2023-03-21T14:54:35;2.15;;;1.42;;
29044;SDS011;16133;49.486;12.176;2023-03-21T14:57:06;2.00;;;1.08;;
29044;SDS011;16133;49.486;12.176;2023-03-21T14:59:36;3.33;;;1.15;;
29044;SDS011;16133;49.486;12.176;2023-03-21T15:02:45;4.47;;;0.80;;
29044;SDS011;16133;49.486;12.176;2023-03-21T15:05:05;3.50;;;1.10;;
29044;SDS011;16133;49.486;12.176;2023-03-21T15:07:53;4.72;;;1.02;;
29044;SDS011;16133;49.486;12.176;2023-03-21T15:10:39;1.23;;;0.88;;
29044;SDS011;16133;49.486;12.176;2023-03-21T15:13:15;2.35;;;1.08;;
29044;SDS011;16133;49.486;12.176;2023-03-21T15:15:43;2.08;;;1.10;;
29044;SDS011;16133;49.486;12.176;2023-03-21T15:18:10;4.75;;;2.05;;
29044;SDS011;16133;49.486;12.176;2023-03-21T15:20:39;2.22;;;1.10;;
29044;SDS011;16133;49.486;12.176;2023-03-21T15:23:10;2.03;;;1.00;;
29044;SDS011;16133;49.486;12.176;2023-03-21T15:25:39;4.22;;;1.50;;
29044;SDS011;16133;49.486;12.176;2023-03-21T15:28:05;1.90;;;1.38;;
29044;SDS011;16133;49.486;12.176;2023-03-21T15:30:31;1.65;;;1.15;;
29044;SDS011;16133;49.486;12.176;2023-03-21T15:33:03;3.63;;;1.40;;
29044;SDS011;16133;49.486;12.176;2023-03-21T15:35:36;2.97;;;1.30;;
29044;SDS011;16133;49.486;12.176;2023-03-21T15:38:19;3.58;;;1.80;;
29044;SDS011;16133;49.486;12.176;2023-03-21T15:41:12;6.45;;;1.90;;
29044;SDS011;16133;49.486;12.176;2023-03-21T15:51:40;5.53;;;1.67;;
29044;SDS011;16133;49.486;12.176;2023-03-21T15:54:10;3.67;;;1.55;;
29044;SDS011;16133;49.486;12.176;2023-03-21T15:56:41;8.45;;;2.00;;
29044;SDS011;16133;49.486;12.176;2023-03-21T15:59:14;8.15;;;4.43;;
29044;SDS011;16133;49.486;12.176;2023-03-21T16:01:43;5.18;;;2.85;;
29044;SDS011;16133;49.486;12.176;2023-03-21T16:04:11;3.55;;;2.17;;
29044;SDS011;16133;49.486;12.176;2023-03-21T16:06:49;5.57;;;1.85;;
29044;SDS011;16133;49.486;12.176;2023-03-21T16:09:17;3.22;;;1.90;;
29044;SDS011;16133;49.486;12.176;2023-03-21T16:11:50;3.28;;;1.50;;
29044;SDS011;16133;49.486;12.176;2023-03-21T16:14:17;4.88;;;1.98;;
29044;SDS011;16133;49.486;12.176;2023-03-21T16:16:44;3.80;;;2.25;;
29044;SDS011;16133;49.486;12.176;2023-03-21T16:19:10;4.95;;;2.13;;
29044;SDS011;16133;49.486;12.176;2023-03-21T16:21:36;2.83;;;1.80;;
29044;SDS011;16133;49.486;12.176;2023-03-21T16:24:05;3.78;;;1.80;;
29044;SDS011;16133;49.486;12.176;2023-03-21T16:26:33;3.25;;;1.48;;
29044;SDS011;16133;49.486;12.176;2023-03-21T16:29:02;3.95;;;1.63;;
29044;SDS011;16133;49.486;12.176;2023-03-21T16:31:30;3.05;;;1.40;;
29044;SDS011;16133;49.486;12.176;2023-03-21T16:33:56;2.72;;;1.48;;
29044;SDS011;16133;49.486;12.176;2023-03-21T16:36:23;2.60;;;1.27;;
29044;SDS011;16133;49.486;12.176;2023-03-21T16:39:21;1.63;;;1.20;;
29044;SDS011;16133;49.486;12.176;2023-03-21T16:41:49;1.58;;;1.08;;